Time;durP1;ratioP1;P1;durP2;ratioP2;P2;SDS_P1;SDS_P2;PMS_P1;PMS_P2;Temp;Humidity;BMP_temperature;BMP_pressure;BME280_temperature;BME280_humidity;BME280_pressure;Samples;Min_cycle;Max_cycle;Signal;HPM_P1;HPM_P2
2022/05/13 00:02:07;;;;;;;10.50;10.20;;;17.20;99.90;;;;;;5000951;28;20306;-80
2022/05/13 00:04:38;;;;;;;10.40;10.10;;;17.20;99.90;;;;;;5001116;28;20229;-79
2022/05/13 00:07:14;;;;;;;10.63;10.32;;;17.20;99.90;;;;;;5001591;28;20253;-80
2022/05/13 00:10:01;;;;;;;10.50;10.20;;;17.20;99.90;;;;;;5001389;28;20233;-79
2022/05/13 00:15:20;;;;;;;10.70;10.40;;;17.20;99.90;;;;;;5004176;28;20228;-80
2022/05/13 00:17:48;;;;;;;10.32;10.02;;;17.20;99.90;;;;;;5004044;28;20233;-79
2022/05/13 00:20:26;;;;;;;10.38;10.07;;;17.10;99.90;;;;;;5004431;28;20236;-79
2022/05/13 00:23:05;;;;;;;10.10;9.80;;;17.20;99.90;;;;;;5004478;28;20239;-79
2022/05/13 00:25:41;;;;;;;10.48;10.18;;;17.10;99.90;;;;;;5003993;28;20229;-78
2022/05/13 00:28:10;;;;;;;10.02;9.73;;;17.10;99.90;;;;;;5003661;28;20237;-80
2022/05/13 00:30:43;;;;;;;9.95;9.65;;;17.10;99.90;;;;;;5004012;28;20315;-79
2022/05/13 00:33:11;;;;;;;10.38;10.07;;;17.10;99.90;;;;;;5003912;28;20229;-80
2022/05/13 00:35:48;;;;;;;10.30;10.00;;;17.10;99.90;;;;;;5003854;28;20233;-79
2022/05/13 00:38:17;;;;;;;10.68;10.38;;;17.10;99.90;;;;;;5003680;28;20254;-79
2022/05/13 00:40:47;;;;;;;10.80;10.50;;;17.10;99.90;;;;;;5003763;28;20233;-80
2022/05/13 00:43:18;;;;;;;10.38;10.07;;;17.10;99.90;;;;;;5004268;28;20220;-80
2022/05/13 00:48:32;;;;;;;10.30;10.00;;;17.10;99.90;;;;;;5004539;28;20229;-79
2022/05/13 00:51:10;;;;;;;10.07;9.77;;;17.10;99.90;;;;;;5003766;28;20228;-79
2022/05/13 00:53:43;;;;;;;10.00;9.70;;;17.00;99.90;;;;;;5003949;28;20225;-79
2022/05/13 00:56:20;;;;;;;10.20;9.90;;;17.00;99.90;;;;;;5003489;28;20221;-79
2022/05/13 00:59:01;;;;;;;10.65;10.35;;;17.10;99.90;;;;;;5003290;28;20241;-79
2022/05/13 01:01:29;;;;;;;10.70;10.40;;;17.10;99.90;;;;;;5003904;28;20235;-79
2022/05/13 01:04:04;;;;;;;10.40;10.10;;;17.10;99.90;;;;;;5003232;28;20239;-79
2022/05/13 01:06:36;;;;;;;10.13;9.82;;;17.10;99.90;;;;;;5003136;28;20248;-80
2022/05/13 01:09:04;;;;;;;10.35;10.05;;;17.10;99.90;;;;;;5002967;28;20235;-80
2022/05/13 01:11:41;;;;;;;10.20;9.90;;;17.10;99.90;;;;;;5003551;28;20225;-80
2022/05/13 01:14:22;;;;;;;10.05;9.75;;;17.10;99.90;;;;;;5002870;28;20390;-80
2022/05/13 01:19:49;;;;;;;10.18;9.88;;;17.10;99.90;;;;;;5003165;28;20298;-80
2022/05/13 01:22:23;;;;;;;10.13;9.82;;;17.10;99.90;;;;;;5003007;28;20331;-80
2022/05/13 01:24:53;;;;;;;10.00;9.70;;;17.10;99.90;;;;;;5002332;28;20232;-79
2022/05/13 01:27:21;;;;;;;10.10;9.80;;;17.10;99.90;;;;;;5002441;28;20273;-80
2022/05/13 01:29:51;;;;;;;10.30;10.00;;;17.10;99.90;;;;;;5002713;28;20708;-80
2022/05/13 01:32:20;;;;;;;10.20;9.90;;;17.10;99.90;;;;;;5002550;28;21014;-80
2022/05/13 01:34:48;;;;;;;10.15;9.85;;;17.10;99.90;;;;;;5027869;22;20259;-79
2022/05/13 01:37:17;;;;;;;10.30;10.00;;;17.10;99.90;;;;;;5020719;28;20221;-79
2022/05/13 01:39:45;;;;;;;10.35;10.05;;;17.00;99.90;;;;;;5020358;28;20248;-79
2022/05/13 01:42:12;;;;;;;10.10;9.80;;;17.00;99.90;;;;;;5020639;28;20236;-79
2022/05/13 01:44:40;;;;;;;10.18;9.88;;;17.00;99.90;;;;;;5013678;28;20229;-79
2022/05/13 01:47:08;;;;;;;9.93;9.63;;;17.00;99.90;;;;;;5000495;28;20229;-79
2022/05/13 01:49:36;;;;;;;10.00;9.70;;;16.90;99.90;;;;;;5003802;28;20248;-79
2022/05/13 01:52:04;;;;;;;10.07;9.77;;;16.90;99.90;;;;;;5004032;28;20229;-80
2022/05/13 01:54:34;;;;;;;10.10;9.80;;;16.90;99.90;;;;;;5002908;28;20233;-81
2022/05/13 01:57:01;;;;;;;10.02;9.73;;;16.90;99.90;;;;;;5002863;28;20245;-81
2022/05/13 01:59:29;;;;;;;10.30;10.00;;;17.00;99.90;;;;;;5002973;28;20270;-80
2022/05/13 02:01:57;;;;;;;10.10;9.80;;;16.90;99.90;;;;;;5002952;28;20244;-80
2022/05/13 02:04:23;;;;;;;10.20;9.90;;;17.00;99.90;;;;;;5002528;28;20284;-80
2022/05/13 02:06:51;;;;;;;9.80;9.50;;;16.90;99.90;;;;;;5002133;28;20241;-80
2022/05/13 02:09:19;;;;;;;10.20;9.90;;;17.00;99.90;;;;;;5002505;28;20232;-80
2022/05/13 02:11:48;;;;;;;9.85;9.55;;;17.00;99.90;;;;;;5002633;28;20296;-80
2022/05/13 02:14:17;;;;;;;10.05;9.75;;;17.00;99.90;;;;;;5002366;28;20292;-80
2022/05/13 02:16:45;;;;;;;10.15;9.85;;;16.90;99.90;;;;;;5002169;28;20698;-80
2022/05/13 02:19:13;;;;;;;10.00;9.70;;;16.90;99.90;;;;;;5002317;28;20241;-81
2022/05/13 02:21:41;;;;;;;10.00;9.70;;;16.90;99.90;;;;;;5002442;28;20287;-80
2022/05/13 02:24:09;;;;;;;10.20;9.90;;;16.90;99.90;;;;;;5002522;28;20225;-81
2022/05/13 02:26:37;;;;;;;9.90;9.60;;;16.80;99.90;;;;;;5002258;28;20229;-81
2022/05/13 02:29:06;;;;;;;10.00;9.70;;;16.90;99.90;;;;;;5002165;28;20236;-80
2022/05/13 02:31:34;;;;;;;10.00;9.70;;;16.80;99.90;;;;;;5002558;28;20229;-80
2022/05/13 02:34:02;;;;;;;10.10;9.80;;;16.80;99.90;;;;;;5002357;28;20256;-81
2022/05/13 02:36:30;;;;;;;10.30;10.00;;;16.80;99.90;;;;;;5002243;28;20209;-80
2022/05/13 02:38:57;;;;;;;10.05;9.75;;;16.80;99.90;;;;;;5002452;28;20237;-81
2022/05/13 02:41:25;;;;;;;10.05;9.75;;;16.80;99.90;;;;;;5002731;28;20236;-80
2022/05/13 02:43:55;;;;;;;10.52;10.23;;;16.80;99.90;;;;;;5001982;28;20240;-80
2022/05/13 02:46:28;;;;;;;10.30;10.00;;;16.80;99.90;;;;;;5001171;28;20324;-79
2022/05/13 02:48:56;;;;;;;10.50;10.20;;;16.80;99.90;;;;;;5001983;28;20229;-80
2022/05/13 02:51:26;;;;;;;10.25;9.95;;;16.80;99.90;;;;;;5002159;28;20225;-80
2022/05/13 02:53:56;;;;;;;10.18;9.88;;;16.80;99.90;;;;;;5001493;28;20267;-80
2022/05/13 02:56:25;;;;;;;10.10;9.80;;;16.80;99.90;;;;;;5001698;28;20312;-81
2022/05/13 02:58:52;;;;;;;10.40;10.10;;;16.80;99.90;;;;;;5004030;28;20260;-81
2022/05/13 03:01:26;;;;;;;10.25;9.95;;;16.70;99.90;;;;;;5003242;28;20247;-80
2022/05/13 03:03:55;;;;;;;10.05;9.75;;;16.70;99.90;;;;;;5007397;28;20228;-81
2022/05/13 03:06:24;;;;;;;10.38;10.07;;;16.80;99.90;;;;;;5020392;28;20206;-81
2022/05/13 03:08:53;;;;;;;10.20;9.90;;;16.80;99.90;;;;;;5019645;28;20245;-81
2022/05/13 03:11:22;;;;;;;10.20;9.90;;;16.80;99.90;;;;;;5005676;28;20228;-82
2022/05/13 03:13:51;;;;;;;10.65;10.35;;;16.80;99.90;;;;;;5003774;28;20258;-82
2022/05/13 03:16:23;;;;;;;10.20;9.90;;;16.90;99.90;;;;;;5005053;28;20237;-82
2022/05/13 03:19:00;;;;;;;10.15;9.85;;;16.90;99.90;;;;;;5005125;28;20300;-81
2022/05/13 03:21:28;;;;;;;10.32;10.02;;;16.80;99.90;;;;;;5003639;28;20254;-81
2022/05/13 03:23:58;;;;;;;10.05;9.75;;;16.80;99.90;;;;;;5003890;28;20237;-81
2022/05/13 03:26:25;;;;;;;10.60;10.30;;;16.80;99.90;;;;;;5001819;28;20670;-82
2022/05/13 03:28:53;;;;;;;10.85;10.55;;;16.80;99.90;;;;;;5003285;28;20228;-82
2022/05/13 03:31:21;;;;;;;10.88;10.57;;;16.80;99.90;;;;;;5002921;28;20271;-82
2022/05/13 03:33:49;;;;;;;11.15;10.85;;;16.80;99.90;;;;;;5001412;28;20221;-82
2022/05/13 03:36:19;;;;;;;10.90;10.60;;;16.80;99.90;;;;;;5001861;28;20251;-82
2022/05/13 03:38:47;;;;;;;10.90;10.60;;;16.70;99.90;;;;;;5002333;28;20232;-81
2022/05/13 03:41:16;;;;;;;11.30;11.00;;;16.70;99.90;;;;;;5004175;28;20247;-81
2022/05/13 03:43:44;;;;;;;11.50;11.10;;;16.80;99.90;;;;;;5004416;28;20296;-81
2022/05/13 03:46:12;;;;;;;11.43;11.02;;;16.80;99.90;;;;;;5003897;28;20237;-81
2022/05/13 03:48:39;;;;;;;10.75;10.45;;;16.80;99.90;;;;;;5003139;28;20232;-81
2022/05/13 03:51:10;;;;;;;10.82;10.52;;;16.80;99.90;;;;;;5003941;28;20233;-81
2022/05/13 03:53:39;;;;;;;10.82;10.52;;;16.80;99.90;;;;;;5003034;28;20231;-82
2022/05/13 03:56:08;;;;;;;10.98;10.68;;;16.80;99.90;;;;;;5001942;28;20263;-81
2022/05/13 03:58:36;;;;;;;10.90;10.60;;;16.80;99.90;;;;;;5002169;28;20268;-81
2022/05/13 04:01:06;;;;;;;10.95;10.65;;;16.80;99.90;;;;;;5002738;28;20236;-81
2022/05/13 04:03:34;;;;;;;11.25;10.95;;;16.80;99.90;;;;;;5002001;28;20240;-81
2022/05/13 04:08:57;;;;;;;10.73;10.43;;;16.80;99.90;;;;;;5001380;28;20220;-81
2022/05/13 04:11:25;;;;;;;10.85;10.55;;;16.70;99.90;;;;;;5002255;28;20229;-82
2022/05/13 04:16:38;;;;;;;11.00;10.70;;;16.80;99.90;;;;;;5001649;28;20220;-82
2022/05/13 04:19:06;;;;;;;10.60;10.30;;;16.80;99.90;;;;;;5002285;28;20760;-83
2022/05/13 04:21:37;;;;;;;10.80;10.50;;;16.80;99.90;;;;;;5002102;28;20237;-82
2022/05/13 04:24:11;;;;;;;11.05;10.75;;;16.80;99.90;;;;;;5002314;28;20257;-82
2022/05/13 04:26:39;;;;;;;10.40;10.10;;;16.80;99.90;;;;;;5003533;28;20225;-82
2022/05/13 04:29:07;;;;;;;10.80;10.50;;;16.80;99.90;;;;;;5004453;28;20241;-82
2022/05/13 04:31:37;;;;;;;10.52;10.23;;;16.80;99.90;;;;;;5003272;28;20240;-82
2022/05/13 04:34:06;;;;;;;10.48;10.18;;;16.80;99.90;;;;;;5002348;28;20224;-81
2022/05/13 04:36:34;;;;;;;10.70;10.40;;;16.90;99.90;;;;;;5001928;28;20245;-81
2022/05/13 04:39:02;;;;;;;10.48;10.18;;;16.90;99.90;;;;;;5001723;28;20260;-81
2022/05/13 04:44:19;;;;;;;10.65;10.35;;;17.00;99.90;;;;;;5001740;28;20233;-82
2022/05/13 04:46:48;;;;;;;10.55;10.25;;;16.90;99.90;;;;;;5000843;28;20236;-81
2022/05/13 04:49:16;;;;;;;10.60;10.30;;;16.90;99.90;;;;;;5001889;28;20240;-81
2022/05/13 04:51:44;;;;;;;10.80;10.50;;;17.00;99.90;;;;;;5001323;28;20232;-81
2022/05/13 04:54:11;;;;;;;10.30;10.00;;;17.00;99.90;;;;;;5000454;28;20232;-81
2022/05/13 04:56:41;;;;;;;9.90;9.60;;;17.10;99.90;;;;;;5000838;28;20251;-81
2022/05/13 04:59:08;;;;;;;10.27;9.98;;;17.10;99.90;;;;;;5001259;28;20253;-81
2022/05/13 05:01:36;;;;;;;10.20;9.90;;;17.10;99.90;;;;;;5004979;28;20256;-81
2022/05/13 05:04:05;;;;;;;10.00;9.70;;;17.10;99.90;;;;;;5013809;28;20240;-81
2022/05/13 05:06:32;;;;;;;10.10;9.80;;;17.10;99.90;;;;;;5008721;28;20280;-81
2022/05/13 05:09:00;;;;;;;10.10;9.80;;;17.10;99.90;;;;;;5009120;28;20232;-81
2022/05/13 05:11:28;;;;;;;9.80;9.50;;;17.20;99.90;;;;;;5007193;28;20320;-81
2022/05/13 05:13:57;;;;;;;10.10;9.80;;;17.10;99.90;;;;;;5005407;28;20288;-81
2022/05/13 05:16:25;;;;;;;9.75;9.45;;;17.10;99.90;;;;;;5016508;28;20221;-81
2022/05/13 05:18:54;;;;;;;10.07;9.77;;;17.10;99.90;;;;;;5018959;28;20264;-81
2022/05/13 05:21:22;;;;;;;9.65;9.35;;;17.10;99.90;;;;;;5021523;28;20236;-81
2022/05/13 05:23:50;;;;;;;9.82;9.52;;;17.10;99.90;;;;;;5020925;28;20233;-81
2022/05/13 05:26:18;;;;;;;9.70;9.40;;;17.20;99.90;;;;;;5020483;28;20233;-81
2022/05/13 05:28:47;;;;;;;10.05;9.75;;;17.20;99.90;;;;;;5017538;28;20225;-81
2022/05/13 05:31:16;;;;;;;9.55;9.25;;;17.20;99.90;;;;;;5018330;28;20220;-81
2022/05/13 05:33:44;;;;;;;9.70;9.40;;;17.30;99.90;;;;;;5016469;28;20229;-81
2022/05/13 05:36:12;;;;;;;9.40;9.10;;;17.30;99.90;;;;;;5016661;28;20303;-81
2022/05/13 05:38:41;;;;;;;9.35;9.05;;;17.40;99.90;;;;;;5015381;28;20287;-80
2022/05/13 05:41:09;;;;;;;9.57;9.27;;;17.40;99.90;;;;;;5014813;28;20260;-81
2022/05/13 05:43:38;;;;;;;9.40;9.10;;;17.50;99.90;;;;;;5013431;28;20225;-81
2022/05/13 05:46:06;;;;;;;9.90;9.60;;;17.60;99.90;;;;;;5014010;28;20252;-81
2022/05/13 05:48:36;;;;;;;9.50;9.20;;;17.60;99.90;;;;;;5014493;28;20232;-81
2022/05/13 05:51:04;;;;;;;9.70;9.40;;;17.60;99.90;;;;;;5014185;28;20229;-81
2022/05/13 05:59:04;;;;;;;10.00;9.70;;;17.60;99.90;;;;;;5004394;28;20396;-82
2022/05/13 06:01:33;;;;;;;9.75;9.45;;;17.60;99.90;;;;;;5003495;28;20245;-82
2022/05/13 06:04:03;;;;;;;9.90;9.60;;;17.60;99.90;;;;;;5004447;28;20252;-81
2022/05/13 06:06:31;;;;;;;9.70;9.40;;;17.70;99.90;;;;;;5005331;28;20217;-82
2022/05/13 06:09:00;;;;;;;9.40;9.10;;;17.70;99.90;;;;;;5006117;28;20232;-82
2022/05/13 06:11:28;;;;;;;9.65;9.35;;;17.80;99.90;;;;;;5004304;28;20283;-81
2022/05/13 06:13:59;;;;;;;9.70;9.40;;;17.80;99.90;;;;;;5004072;28;20232;-82
2022/05/13 06:16:29;;;;;;;9.73;9.43;;;17.80;99.90;;;;;;5003498;28;20261;-81
2022/05/13 06:19:00;;;;;;;9.35;9.05;;;17.80;99.90;;;;;;5005279;28;20233;-81
2022/05/13 06:21:30;;;;;;;9.40;9.10;;;17.90;99.90;;;;;;5007487;28;20236;-81
2022/05/13 06:23:59;;;;;;;9.10;8.90;;;17.90;99.90;;;;;;5016197;28;20220;-82
2022/05/13 06:26:28;;;;;;;9.35;9.05;;;18.00;99.90;;;;;;5015770;28;20223;-81
2022/05/13 06:28:56;;;;;;;9.27;8.98;;;18.10;99.90;;;;;;5016537;28;20264;-81
2022/05/13 06:31:26;;;;;;;9.52;9.23;;;18.10;99.90;;;;;;5011368;28;20236;-82
2022/05/13 06:33:54;;;;;;;9.90;9.60;;;18.10;99.90;;;;;;5005079;28;20285;-82
2022/05/13 06:36:22;;;;;;;9.98;9.68;;;18.20;99.90;;;;;;5003688;28;20240;-82
2022/05/13 06:38:52;;;;;;;9.50;9.20;;;18.20;99.90;;;;;;5001053;28;20229;-82
2022/05/13 06:41:27;;;;;;;9.60;9.30;;;18.30;99.90;;;;;;5001423;28;20236;-84
2022/05/13 06:43:55;;;;;;;9.40;9.10;;;18.30;99.90;;;;;;5001561;28;20224;-82
2022/05/13 06:46:24;;;;;;;9.75;9.45;;;18.30;99.90;;;;;;5002574;28;20232;-82
2022/05/13 06:48:51;;;;;;;9.57;9.27;;;18.30;99.90;;;;;;5003583;28;20232;-81
2022/05/13 06:51:19;;;;;;;9.90;9.60;;;18.40;99.90;;;;;;5002612;28;20237;-82
2022/05/13 06:53:47;;;;;;;9.50;9.20;;;18.60;99.90;;;;;;5004239;28;20220;-81
2022/05/13 06:56:16;;;;;;;9.60;9.30;;;18.70;99.90;;;;;;5003537;28;20245;-81
2022/05/13 06:58:44;;;;;;;9.70;9.40;;;18.70;99.90;;;;;;5005086;28;20287;-82
2022/05/13 07:01:12;;;;;;;9.30;9.00;;;18.70;99.90;;;;;;5002900;28;20240;-82
2022/05/13 07:03:41;;;;;;;9.45;9.15;;;18.70;99.90;;;;;;5001597;28;20235;-81
2022/05/13 07:06:08;;;;;;;9.10;8.90;;;18.60;99.90;;;;;;5003678;28;20237;-81
2022/05/13 07:08:36;;;;;;;9.63;9.32;;;18.60;99.90;;;;;;5006687;28;20264;-81
2022/05/13 07:11:04;;;;;;;9.65;9.35;;;18.70;99.90;;;;;;5006954;28;20350;-81
2022/05/13 07:13:33;;;;;;;9.70;9.40;;;18.70;99.90;;;;;;5006397;28;20222;-81
2022/05/13 07:16:02;;;;;;;9.60;9.30;;;18.80;99.90;;;;;;5005784;28;20292;-81
2022/05/13 07:18:30;;;;;;;9.15;8.95;;;18.90;99.90;;;;;;5006376;28;20233;-81
2022/05/13 07:20:58;;;;;;;9.15;8.95;;;18.90;99.90;;;;;;5006381;28;20276;-81
2022/05/13 07:23:26;;;;;;;9.43;9.13;;;18.90;99.90;;;;;;5004492;28;20268;-80
2022/05/13 07:25:55;;;;;;;9.73;9.43;;;18.90;99.90;;;;;;5003401;28;20221;-81
2022/05/13 07:28:23;;;;;;;9.20;9.00;;;19.10;99.90;;;;;;5006819;28;20232;-81
2022/05/13 07:30:53;;;;;;;8.80;8.60;;;19.10;99.90;;;;;;5002780;28;20229;-81
2022/05/13 07:33:22;;;;;;;8.80;8.60;;;19.20;99.90;;;;;;5005070;28;20332;-83
2022/05/13 07:35:50;;;;;;;9.40;9.10;;;19.20;99.90;;;;;;5021774;22;20236;-79
2022/05/13 07:38:18;;;;;;;9.52;9.23;;;19.30;99.90;;;;;;5010804;28;20256;-80
2022/05/13 07:43:31;;;;;;;8.90;8.70;;;19.30;99.90;;;;;;5019855;28;20311;-79
2022/05/13 07:46:03;;;;;;;8.95;8.75;;;19.40;99.90;;;;;;5012924;28;20229;-77
2022/05/13 07:48:34;;;;;;;9.23;9.00;;;19.30;99.90;;;;;;4990144;28;20237;-78
2022/05/13 07:51:03;;;;;;;9.23;9.02;;;19.40;99.90;;;;;;4996118;28;20232;-78
2022/05/13 07:53:32;;;;;;;8.80;8.60;;;19.40;99.90;;;;;;4998016;28;20235;-78
2022/05/13 07:56:02;;;;;;;9.20;9.00;;;19.40;99.90;;;;;;4998277;28;20232;-78
2022/05/13 07:58:30;;;;;;;9.30;9.00;;;19.40;99.90;;;;;;4997555;28;20235;-77
2022/05/13 08:01:02;;;;;;;9.50;9.20;;;19.50;99.90;;;;;;4997997;28;20241;-78
2022/05/13 08:03:31;;;;;;;8.80;8.60;;;19.50;99.90;;;;;;4998164;28;20299;-77
2022/05/13 08:06:04;;;;;;;8.80;8.60;;;19.50;99.90;;;;;;4997204;28;20237;-78
2022/05/13 08:08:37;;;;;;;9.55;9.25;;;19.40;99.90;;;;;;4997498;28;20237;-77
2022/05/13 08:11:08;;;;;;;8.60;8.40;;;19.40;99.90;;;;;;4997241;28;20304;-78
2022/05/13 08:13:36;;;;;;;8.48;8.27;;;19.30;99.90;;;;;;4997801;28;20240;-78
2022/05/13 08:16:15;;;;;;;8.60;8.40;;;19.20;99.90;;;;;;4997200;28;20233;-77
2022/05/13 08:18:44;;;;;;;9.00;8.80;;;19.30;99.90;;;;;;4997674;28;20728;-78
2022/05/13 08:21:14;;;;;;;8.98;8.77;;;19.50;99.90;;;;;;4997546;28;20240;-78
2022/05/13 08:23:42;;;;;;;9.02;8.82;;;19.80;99.90;;;;;;4997195;28;20208;-77
2022/05/13 08:26:11;;;;;;;9.52;9.23;;;19.90;99.90;;;;;;4997383;28;20268;-77
2022/05/13 08:28:41;;;;;;;9.90;9.60;;;20.00;99.90;;;;;;4997445;28;20236;-78
2022/05/13 08:31:14;;;;;;;9.13;8.93;;;20.20;99.90;;;;;;4995588;28;20752;-78
2022/05/13 08:33:50;;;;;;;9.65;9.35;;;20.00;99.90;;;;;;4998128;28;20237;-77
2022/05/13 08:36:18;;;;;;;9.10;8.90;;;20.10;99.90;;;;;;4999356;28;20319;-77
2022/05/13 08:38:49;;;;;;;9.63;9.32;;;20.00;99.90;;;;;;5000496;28;20232;-77
2022/05/13 08:41:35;;;;;;;9.52;9.23;;;20.10;99.90;;;;;;4999814;28;20237;-78
2022/05/13 08:44:09;;;;;;;9.38;9.07;;;20.30;99.90;;;;;;5001202;28;20291;-77
2022/05/13 08:46:44;;;;;;;9.55;9.25;;;20.40;99.90;;;;;;5000600;28;20290;-77
2022/05/13 08:49:33;;;;;;;9.57;9.27;;;20.60;99.90;;;;;;4998288;28;20291;-78
2022/05/13 08:55:06;;;;;;;10.18;9.88;;;20.80;99.90;;;;;;5000598;28;20228;-78
2022/05/13 08:57:40;;;;;;;9.90;9.60;;;20.80;99.90;;;;;;5001309;28;20289;-79
2022/05/13 09:00:14;;;;;;;9.77;9.48;;;20.70;99.90;;;;;;5000661;28;20305;-78
2022/05/13 09:02:55;;;;;;;9.65;9.35;;;20.70;99.90;;;;;;5000515;28;20245;-78
2022/05/13 09:05:28;;;;;;;9.82;9.52;;;20.80;99.90;;;;;;5001116;28;20310;-78
2022/05/13 09:07:57;;;;;;;9.93;9.63;;;20.60;99.90;;;;;;5001403;28;20292;-78
2022/05/13 09:10:28;;;;;;;9.80;9.50;;;20.60;99.90;;;;;;5002206;28;20233;-78
2022/05/13 09:13:06;;;;;;;8.90;8.70;;;20.50;99.90;;;;;;5001473;28;20240;-78
2022/05/13 09:15:42;;;;;;;9.40;9.10;;;20.50;99.90;;;;;;4997482;28;20288;-78
2022/05/13 09:18:26;;;;;;;9.65;9.35;;;20.30;99.90;;;;;;4993201;28;20247;-78
2022/05/13 09:21:01;;;;;;;9.40;9.10;;;20.30;99.90;;;;;;4998172;28;20319;-77
2022/05/13 09:23:30;;;;;;;9.45;9.15;;;20.40;99.90;;;;;;4997250;28;20228;-79
2022/05/13 09:26:08;;;;;;;9.30;9.00;;;20.50;99.90;;;;;;4999647;28;20232;-77
2022/05/13 09:28:38;;;;;;;9.70;9.40;;;20.30;99.90;;;;;;5000440;28;20250;-78
2022/05/13 09:31:19;;;;;;;9.20;8.95;;;20.40;99.90;;;;;;4999609;28;20296;-78
2022/05/13 09:33:54;;;;;;;9.18;8.95;;;20.70;99.90;;;;;;4988514;28;20296;-80
2022/05/13 09:36:41;;;;;;;9.38;9.07;;;20.80;99.90;;;;;;5000532;28;20245;-79
2022/05/13 09:39:23;;;;;;;9.13;8.93;;;20.90;99.90;;;;;;5001974;28;20826;-78
2022/05/13 09:41:52;;;;;;;9.70;9.40;;;21.10;99.90;;;;;;5007381;28;20247;-78
2022/05/13 09:44:28;;;;;;;9.60;9.30;;;21.20;99.90;;;;;;5007156;28;20293;-78
2022/05/13 09:47:15;;;;;;;9.32;9.02;;;21.70;99.90;;;;;;5002777;28;20252;-78
2022/05/13 09:49:49;;;;;;;9.55;9.25;;;21.70;99.90;;;;;;5002254;28;20233;-78
2022/05/13 09:52:32;;;;;;;9.10;8.90;;;21.60;99.90;;;;;;5009939;28;20233;-78
2022/05/13 09:55:18;;;;;;;10.05;9.75;;;21.20;99.90;;;;;;5011951;28;20237;-78
2022/05/13 09:57:49;;;;;;;10.00;9.70;;;21.10;99.90;;;;;;5003932;28;20213;-78
2022/05/13 10:00:26;;;;;;;9.82;9.52;;;21.30;99.90;;;;;;5004058;28;20248;-79
2022/05/13 10:03:13;;;;;;;9.60;9.30;;;21.40;99.90;;;;;;5002270;28;20240;-78
2022/05/13 10:05:53;;;;;;;9.82;9.52;;;21.50;99.90;;;;;;5002550;28;20260;-78
2022/05/13 10:08:30;;;;;;;10.02;9.73;;;21.50;99.90;;;;;;5002484;28;20244;-82
2022/05/13 10:14:04;;;;;;;9.90;9.60;;;21.90;99.90;;;;;;5002652;28;20224;-81
2022/05/13 10:16:42;;;;;;;11.38;11.07;;;21.60;99.90;;;;;;5002734;28;20259;-82
2022/05/13 10:19:20;;;;;;;11.55;11.15;;;21.50;99.90;;;;;;5002301;28;20240;-81
2022/05/13 10:22:09;;;;;;;11.48;11.10;;;21.30;99.90;;;;;;5002865;28;20295;-81
2022/05/13 10:24:47;;;;;;;11.07;10.77;;;21.40;99.90;;;;;;5004468;28;20379;-80
2022/05/13 10:27:27;;;;;;;11.10;10.80;;;21.90;99.90;;;;;;4997350;28;20237;-79
2022/05/13 10:30:11;;;;;;;11.20;10.90;;;22.10;99.90;;;;;;5003388;28;20248;-80
2022/05/13 10:32:49;;;;;;;10.98;10.68;;;22.00;99.90;;;;;;4983641;28;20222;-78
2022/05/13 10:35:27;;;;;;;10.88;10.57;;;22.20;99.90;;;;;;4986087;28;20229;-78
2022/05/13 10:38:16;;;;;;;11.05;10.75;;;22.50;99.90;;;;;;5002445;28;20228;-78
2022/05/13 10:40:49;;;;;;;11.13;10.82;;;22.50;99.90;;;;;;5001033;28;20209;-77
2022/05/13 10:43:22;;;;;;;11.30;11.00;;;22.80;99.90;;;;;;5000448;28;20337;-77
2022/05/13 10:45:53;;;;;;;11.23;10.93;;;23.10;99.90;;;;;;5000978;28;20688;-80
2022/05/13 10:48:30;;;;;;;11.13;10.82;;;23.10;99.90;;;;;;5003045;28;20228;-79
2022/05/13 10:51:17;;;;;;;11.02;10.73;;;23.00;99.90;;;;;;5006024;28;20232;-79
2022/05/13 10:54:23;;;;;;;11.00;10.70;;;23.10;99.90;;;;;;4999658;28;20229;-81
2022/05/13 10:57:02;;;;;;;10.93;10.63;;;23.20;99.90;;;;;;4972202;28;20252;-79
2022/05/13 10:59:48;;;;;;;10.70;10.40;;;23.50;99.90;;;;;;4982394;28;20245;-78
2022/05/13 11:02:54;;;;;;;10.30;10.00;;;23.60;99.90;;;;;;4982272;28;20233;-78
2022/05/13 11:05:39;;;;;;;10.23;9.93;;;23.60;99.90;;;;;;4981864;28;20233;-77
2022/05/13 11:08:18;;;;;;;10.27;9.98;;;23.50;99.90;;;;;;4981923;28;20284;-77
2022/05/13 11:11:04;;;;;;;10.55;10.25;;;23.80;99.90;;;;;;4981425;28;20301;-78
2022/05/13 11:13:52;;;;;;;10.50;10.20;;;24.10;99.90;;;;;;4983075;28;20253;-79
2022/05/13 11:16:47;;;;;;;10.70;10.40;;;24.10;99.90;;;;;;4981582;28;20229;-79
2022/05/13 11:19:36;;;;;;;11.50;11.10;;;24.20;99.90;;;;;;4983017;28;20225;-79
2022/05/13 11:22:14;;;;;;;11.35;11.05;;;24.40;99.90;;;;;;4984235;28;20241;-79
2022/05/13 11:28:12;;;;;;;11.05;10.75;;;23.40;99.90;;;;;;4960674;28;20237;-79
2022/05/13 11:30:50;;;;;;;10.93;10.63;;;23.50;99.90;;;;;;4986149;28;20237;-79
2022/05/13 11:33:40;;;;;;;10.80;10.50;;;24.00;99.90;;;;;;4987479;28;20287;-79
2022/05/13 11:36:42;;;;;;;10.77;10.48;;;24.20;99.90;;;;;;4985514;28;20241;-79
2022/05/13 11:39:58;;;;;;;10.40;10.10;;;24.60;99.90;;;;;;4981520;28;20233;-79
2022/05/13 11:46:22;;;;;;;11.02;10.73;;;23.90;99.90;;;;;;4986094;28;20229;-79
2022/05/13 11:49:20;;;;;;;11.02;10.73;;;23.90;99.90;;;;;;4980917;28;20241;-78
2022/05/13 11:51:49;;;;;;;10.90;10.60;;;24.40;99.90;;;;;;4986691;28;20250;-79
2022/05/13 11:54:28;;;;;;;11.00;10.70;;;24.30;99.90;;;;;;4986406;28;20237;-79
2022/05/13 11:57:24;;;;;;;10.98;10.68;;;24.30;99.90;;;;;;4986311;28;20241;-79
2022/05/13 11:59:55;;;;;;;11.00;10.70;;;23.70;99.90;;;;;;4985768;28;20261;-78
2022/05/13 12:02:51;;;;;;;10.82;10.52;;;23.80;99.90;;;;;;4985374;28;20313;-79
2022/05/13 12:06:02;;;;;;;10.88;10.57;;;23.80;99.90;;;;;;4986195;28;20241;-79
2022/05/13 12:08:41;;;;;;;11.20;10.90;;;23.60;99.90;;;;;;4987006;28;20237;-79
2022/05/13 12:11:40;;;;;;;10.77;10.48;;;23.90;99.90;;;;;;4989886;28;20253;-78
2022/05/13 12:14:23;;;;;;;10.65;10.35;;;24.20;99.90;;;;;;4990236;28;20219;-79
2022/05/13 12:17:08;;;;;;;10.88;10.57;;;24.30;99.90;;;;;;4990280;28;20266;-78
2022/05/13 12:19:51;;;;;;;10.82;10.52;;;24.40;99.90;;;;;;4992120;28;20240;-80
2022/05/13 12:22:46;;;;;;;10.82;10.52;;;24.00;99.90;;;;;;4992376;28;20233;-79
2022/05/13 12:25:50;;;;;;;10.93;10.63;;;23.90;99.90;;;;;;4991511;28;20284;-80
2022/05/13 12:28:44;;;;;;;11.00;10.70;;;24.40;99.90;;;;;;4991344;28;20350;-80
2022/05/13 12:31:34;;;;;;;11.20;10.90;;;24.80;99.90;;;;;;4990455;28;20280;-79
2022/05/13 12:40:13;;;;;;;10.88;10.57;;;25.10;99.90;;;;;;4991769;28;20249;-79
2022/05/13 12:42:57;;;;;;;11.55;11.18;;;24.30;99.90;;;;;;4992307;28;20264;-78
2022/05/13 12:48:31;;;;;;;11.20;10.90;;;24.20;99.90;;;;;;4995721;28;20221;-78
2022/05/13 12:51:20;;;;;;;11.30;11.00;;;24.30;99.90;;;;;;4999566;28;20242;-78
2022/05/13 12:53:57;;;;;;;11.00;10.70;;;24.00;99.90;;;;;;5002321;28;20249;-76
2022/05/13 12:56:34;;;;;;;11.20;10.90;;;24.20;99.90;;;;;;5001956;28;20249;-78
2022/05/13 12:59:13;;;;;;;11.10;10.80;;;24.40;99.90;;;;;;5002579;28;20213;-78
2022/05/13 13:01:53;;;;;;;11.05;10.75;;;24.60;99.90;;;;;;5002927;28;20221;-78
2022/05/13 13:04:30;;;;;;;11.07;10.77;;;25.00;99.90;;;;;;5002347;28;20266;-79
2022/05/13 13:07:13;;;;;;;11.25;10.95;;;24.70;99.90;;;;;;5002321;28;20225;-78
2022/05/13 13:09:46;;;;;;;11.27;10.98;;;25.00;99.90;;;;;;5002370;28;20241;-80
2022/05/13 13:12:25;;;;;;;11.30;11.00;;;25.10;99.90;;;;;;5002503;28;20220;-78
2022/05/13 13:15:02;;;;;;;11.32;11.02;;;25.40;99.90;;;;;;5002719;28;20233;-76
2022/05/13 13:17:40;;;;;;;11.25;10.95;;;25.30;99.90;;;;;;5001698;28;20229;-77
2022/05/13 13:20:11;;;;;;;11.10;10.80;;;25.50;99.90;;;;;;5000946;28;20245;-77
2022/05/13 13:22:48;;;;;;;11.10;10.80;;;25.70;99.90;;;;;;5001509;28;20233;-76
2022/05/13 13:25:28;;;;;;;10.77;10.48;;;25.70;99.90;;;;;;5000747;28;20245;-78
2022/05/13 13:28:04;;;;;;;10.50;10.20;;;25.80;99.90;;;;;;5000565;28;20233;-79
2022/05/13 13:30:34;;;;;;;10.52;10.23;;;24.80;99.90;;;;;;5000043;28;20253;-78
2022/05/13 13:33:06;;;;;;;10.60;10.30;;;24.80;99.90;;;;;;4992238;28;20248;-79
2022/05/13 13:35:43;;;;;;;10.55;10.25;;;25.10;99.90;;;;;;4988772;28;20261;-78
2022/05/13 13:38:13;;;;;;;10.45;10.15;;;25.20;99.90;;;;;;5038647;23;20263;-84
2022/05/13 13:40:44;;;;;;;10.40;10.10;;;25.50;99.90;;;;;;5022670;28;20232;-84
2022/05/13 13:43:17;;;;;;;10.68;10.38;;;25.10;99.90;;;;;;5022459;28;20944;-84
2022/05/13 13:45:52;;;;;;;11.10;10.80;;;25.30;99.90;;;;;;5021284;28;20291;-85
2022/05/13 13:48:30;;;;;;;11.20;10.90;;;25.30;99.90;;;;;;5002525;28;20247;-84
2022/05/13 13:51:00;;;;;;;10.98;10.68;;;25.40;99.90;;;;;;5003198;28;20227;-84
2022/05/13 13:53:33;;;;;;;11.32;11.02;;;25.70;99.90;;;;;;5003316;28;20237;-84
2022/05/13 13:56:08;;;;;;;10.50;10.20;;;26.10;99.90;;;;;;5002686;28;20232;-84